createdAt,value
2019-04-27T00:01:40.639Z,3.10
2019-04-27T00:04:25.363Z,2.63
2019-04-27T00:06:55.913Z,3.33
2019-04-27T00:09:50.166Z,3.27
2019-04-27T00:12:16.509Z,2.97
2019-04-27T00:14:43.987Z,3.40
2019-04-27T00:17:43.480Z,3.00
2019-04-27T00:20:17.084Z,3.10
2019-04-27T00:22:48.873Z,3.00
2019-04-27T00:25:16.067Z,3.33
2019-04-27T00:27:43.679Z,3.17
2019-04-27T00:30:11.676Z,3.20
2019-04-27T00:32:39.885Z,3.10
2019-04-27T00:35:09.281Z,3.10
2019-04-27T00:37:53.821Z,3.07
2019-04-27T00:40:29.628Z,3.20
2019-04-27T00:42:56.980Z,2.90
2019-04-27T00:45:24.274Z,3.37
2019-04-27T00:47:57.423Z,3.17
2019-04-27T00:50:20.560Z,4.07
2019-04-27T00:52:47.832Z,3.30
2019-04-27T00:55:15.124Z,3.40
2019-04-27T00:57:58.989Z,3.90
2019-04-27T01:00:44.278Z,3.30
2019-04-27T01:03:16.465Z,3.70
2019-04-27T01:05:43.864Z,4.20
2019-04-27T01:08:11.057Z,3.93
2019-04-27T01:10:38.412Z,4.17
2019-04-27T01:13:07.381Z,4.20
2019-04-27T01:15:34.700Z,3.70
2019-04-27T01:18:12.329Z,4.37
2019-04-27T01:20:32.401Z,4.77
2019-04-27T01:22:59.620Z,4.50
2019-04-27T01:25:35.113Z,4.93
2019-04-27T01:28:20.711Z,4.73
2019-04-27T01:30:58.879Z,4.67
2019-04-27T01:33:26.440Z,5.00
2019-04-27T01:35:53.652Z,4.10
2019-04-27T01:38:20.857Z,4.20
2019-04-27T01:40:49.696Z,4.10
2019-04-27T01:43:18.629Z,4.77
2019-04-27T01:45:46.045Z,4.40
2019-04-27T01:48:23.078Z,4.00
2019-04-27T01:50:42.473Z,4.40
2019-04-27T01:53:09.711Z,4.70
2019-04-27T01:55:38.599Z,4.27
2019-04-27T01:58:06.200Z,4.30
2019-04-27T02:00:44.968Z,4.40
2019-04-27T02:03:14.257Z,4.57
2019-04-27T02:05:46.892Z,3.90
2019-04-27T02:08:14.245Z,4.10
2019-04-27T02:10:41.547Z,4.50
2019-04-27T02:13:09.688Z,4.33
2019-04-27T02:15:37.001Z,4.63
2019-04-27T02:18:04.512Z,4.00
2019-04-27T02:20:31.719Z,3.80
2019-04-27T02:22:58.951Z,4.37
2019-04-27T02:25:26.160Z,4.30
2019-04-27T02:27:59.397Z,3.57
2019-04-27T02:30:46.243Z,4.40
2019-04-27T02:33:25.130Z,3.80
2019-04-27T02:35:52.317Z,4.70
2019-04-27T02:38:20.234Z,4.00
2019-04-27T02:40:59.806Z,4.73
2019-04-27T02:43:49.925Z,4.27
2019-04-27T02:46:19.810Z,4.40
2019-04-27T02:48:58.907Z,4.30
2019-04-27T02:51:21.965Z,4.50
2019-04-27T02:53:56.313Z,5.00
2019-04-27T02:56:23.623Z,5.03
2019-04-27T02:58:51.009Z,5.53
2019-04-27T03:01:20.075Z,5.60
2019-04-27T03:03:49.934Z,4.80
2019-04-27T03:06:16.884Z,6.40
2019-04-27T03:08:44.081Z,5.40
2019-04-27T03:11:11.387Z,5.40
2019-04-27T03:14:04.829Z,6.27
2019-04-27T03:16:51.725Z,5.40
2019-04-27T03:19:39.830Z,5.63
2019-04-27T03:22:19.490Z,5.77
2019-04-27T03:25:15.827Z,5.93
2019-04-27T03:27:44.296Z,5.50
2019-04-27T03:30:13.826Z,5.63
2019-04-27T03:32:43.154Z,6.40
2019-04-27T03:35:12.785Z,6.60
2019-04-27T03:37:40.379Z,6.40
2019-04-27T03:40:10.106Z,6.07
2019-04-27T03:42:40.363Z,6.53
2019-04-27T03:45:10.465Z,6.00
2019-04-27T03:47:37.047Z,6.53
2019-04-27T03:50:04.594Z,6.57
2019-04-27T03:52:39.972Z,6.83
2019-04-27T03:55:19.897Z,7.70
2019-04-27T03:58:00.237Z,7.07
2019-04-27T04:00:30.079Z,6.77
2019-04-27T04:02:57.406Z,7.30
2019-04-27T04:05:24.612Z,7.53
2019-04-27T04:07:51.912Z,6.30
2019-04-27T04:10:19.923Z,7.10
2019-04-27T04:12:55.955Z,6.50
2019-04-27T04:15:31.249Z,6.93
2019-04-27T04:17:59.504Z,6.20
2019-04-27T04:20:26.964Z,7.10
2019-04-27T04:22:54.292Z,6.40
2019-04-27T04:25:21.562Z,6.73
2019-04-27T04:27:50.710Z,7.00
2019-04-27T04:30:19.972Z,7.33
2019-04-27T04:32:51.682Z,7.07
2019-04-27T04:35:20.711Z,6.80
2019-04-27T04:37:49.670Z,6.40
2019-04-27T04:40:19.729Z,7.47
2019-04-27T04:42:54.046Z,6.70
2019-04-27T04:45:59.584Z,7.00
2019-04-27T04:48:27.059Z,7.20
2019-04-27T04:50:54.258Z,6.73
2019-04-27T04:53:21.465Z,6.60
2019-04-27T04:55:48.991Z,5.83
2019-04-27T04:58:16.354Z,6.33
2019-04-27T05:00:43.597Z,5.87
2019-04-27T05:03:10.797Z,6.00
2019-04-27T05:05:41.107Z,5.43
2019-04-27T05:08:08.911Z,6.00
2019-04-27T05:10:36.353Z,6.40
2019-04-27T05:13:03.596Z,5.50
2019-04-27T05:15:31.741Z,5.33
2019-04-27T05:17:59.269Z,6.00
2019-04-27T05:20:33.009Z,6.27
2019-04-27T05:23:00.354Z,14.10
2019-04-27T05:25:28.689Z,5.10
2019-04-27T05:27:56.031Z,5.00
2019-04-27T05:30:23.222Z,4.70
2019-04-27T05:32:50.578Z,4.67
2019-04-27T05:35:19.333Z,4.50
2019-04-27T05:37:46.667Z,5.20
2019-04-27T05:40:13.865Z,5.13
2019-04-27T05:42:41.104Z,5.30
2019-04-27T05:45:23.042Z,5.17
2019-04-27T05:47:58.940Z,4.67
2019-04-27T05:50:37.655Z,5.00
2019-04-27T05:52:55.866Z,4.70
2019-04-27T05:55:23.066Z,5.23
2019-04-27T05:57:50.285Z,5.17
2019-04-27T06:00:19.589Z,4.60
2019-04-27T06:02:48.728Z,4.60
2019-04-27T06:05:15.881Z,4.47
2019-04-27T06:07:43.085Z,5.37
2019-04-27T06:10:10.288Z,4.93
2019-04-27T06:12:37.500Z,4.87
2019-04-27T06:15:05.477Z,5.37
2019-04-27T06:17:32.592Z,6.47
2019-04-27T06:19:59.925Z,5.03
2019-04-27T06:22:28.979Z,4.40
2019-04-27T06:24:56.493Z,5.83
2019-04-27T06:27:23.684Z,4.87
2019-04-27T06:29:50.879Z,4.73
2019-04-27T06:32:19.185Z,4.53
2019-04-27T06:34:46.575Z,5.13
2019-04-27T06:37:13.832Z,4.57
2019-04-27T06:39:41.276Z,4.80
2019-04-27T06:42:16.709Z,4.73
2019-04-27T06:44:39.389Z,5.43
2019-04-27T06:47:06.921Z,4.90
2019-04-27T06:49:34.132Z,5.10
2019-04-27T06:52:01.378Z,4.43
2019-04-27T06:54:28.980Z,4.70
2019-04-27T06:56:56.364Z,4.73
2019-04-27T06:59:24.026Z,4.80
2019-04-27T07:01:51.225Z,4.43
2019-04-27T07:04:19.581Z,5.20
2019-04-27T07:06:54.095Z,5.20
2019-04-27T07:09:16.112Z,5.20
2019-04-27T07:11:43.381Z,4.73
2019-04-27T07:14:11.681Z,4.77
2019-04-27T07:16:40.025Z,4.60
2019-04-27T07:19:07.225Z,4.37
2019-04-27T07:21:34.437Z,5.47
2019-04-27T07:24:01.656Z,4.53
2019-04-27T07:26:30.320Z,3.73
2019-04-27T07:28:59.514Z,4.30
2019-04-27T07:31:27.121Z,3.53
2019-04-27T07:33:54.309Z,3.63
2019-04-27T07:36:21.513Z,4.13
2019-04-27T07:38:48.929Z,3.70
2019-04-27T07:41:16.157Z,3.97
2019-04-27T07:43:58.636Z,3.90
2019-04-27T07:46:28.234Z,3.80
2019-04-27T07:48:55.430Z,3.23
2019-04-27T07:51:31.616Z,3.63
2019-04-27T07:53:51.752Z,3.20
2019-04-27T07:56:19.136Z,3.00
2019-04-27T07:58:46.609Z,3.03
2019-04-27T08:01:13.940Z,3.30
2019-04-27T08:03:41.171Z,2.20
2019-04-27T08:06:10.714Z,3.07
2019-04-27T08:08:37.533Z,3.33
2019-04-27T08:11:04.743Z,3.00
2019-04-27T08:13:31.956Z,2.90
2019-04-27T08:15:59.237Z,3.30
2019-04-27T08:18:27.390Z,2.87
2019-04-27T08:20:56.904Z,3.10
2019-04-27T08:23:23.805Z,2.90
2019-04-27T08:25:51.052Z,3.40
2019-04-27T08:28:48.503Z,3.67
2019-04-27T08:31:25.824Z,3.67
2019-04-27T08:33:53.028Z,3.13
2019-04-27T08:36:20.221Z,2.90
2019-04-27T08:38:48.916Z,3.00
2019-04-27T08:41:16.253Z,2.53
2019-04-27T08:43:43.485Z,2.53
2019-04-27T08:46:10.764Z,2.90
2019-04-27T08:48:39.365Z,2.77
2019-04-27T08:51:06.877Z,3.00
2019-04-27T08:53:34.323Z,3.77
2019-04-27T08:56:01.721Z,3.80
2019-04-27T08:58:28.943Z,2.80
2019-04-27T09:00:56.200Z,2.50
2019-04-27T09:03:23.397Z,3.00
2019-04-27T09:05:50.606Z,3.27
2019-04-27T09:08:40.934Z,3.10
2019-04-27T09:11:24.077Z,2.90
2019-04-27T09:14:16.768Z,3.00
2019-04-27T09:17:09.690Z,3.33
2019-04-27T09:19:55.232Z,3.40
2019-04-27T09:22:22.550Z,4.17
2019-04-27T09:24:49.775Z,3.10
2019-04-27T09:27:19.792Z,3.57
2019-04-27T09:29:46.563Z,3.07
2019-04-27T09:32:13.948Z,3.60
2019-04-27T09:34:41.389Z,7.27
2019-04-27T09:37:08.587Z,5.77
2019-04-27T09:39:35.960Z,4.10
2019-04-27T09:42:03.577Z,5.97
2019-04-27T09:44:30.828Z,4.27
2019-04-27T09:46:58.103Z,5.60
2019-04-27T09:49:26.295Z,5.90
2019-04-27T09:51:55.574Z,6.10
2019-04-27T09:54:23.737Z,6.00
2019-04-27T09:56:51.260Z,4.70
2019-04-27T09:59:18.477Z,5.90
2019-04-27T10:01:46.519Z,6.50
2019-04-27T10:04:15.689Z,6.90
2019-04-27T10:06:43.106Z,7.43
2019-04-27T10:09:10.316Z,7.47
2019-04-27T10:11:37.569Z,7.37
2019-04-27T10:14:05.911Z,6.63
2019-04-27T10:16:33.325Z,7.23
2019-04-27T10:19:01.044Z,6.83
2019-04-27T10:21:29.264Z,6.57
2019-04-27T10:23:56.846Z,5.53
2019-04-27T10:26:25.859Z,7.13
2019-04-27T10:28:53.264Z,6.63
2019-04-27T10:31:20.616Z,6.37
2019-04-27T10:33:47.857Z,5.80
2019-04-27T10:36:18.328Z,6.33
2019-04-27T10:38:45.985Z,5.93
2019-04-27T10:41:13.405Z,6.33
2019-04-27T10:43:40.976Z,5.63
2019-04-27T10:46:08.181Z,6.07
2019-04-27T10:48:36.689Z,5.93
2019-04-27T10:51:07.074Z,5.80
2019-04-27T10:53:33.529Z,5.47
2019-04-27T10:56:01.235Z,5.77
2019-04-27T10:58:28.493Z,5.17
2019-04-27T11:00:58.450Z,6.37
2019-04-27T11:03:45.847Z,6.13
2019-04-27T11:06:28.732Z,7.07
2019-04-27T11:08:56.127Z,6.40
2019-04-27T11:11:23.558Z,6.00
2019-04-27T11:13:50.953Z,6.07
2019-04-27T11:16:18.269Z,6.30
2019-04-27T11:18:47.090Z,6.33
2019-04-27T11:21:15.804Z,6.20
2019-04-27T11:23:43.361Z,5.90
2019-04-27T11:26:10.568Z,5.70
2019-04-27T11:28:37.772Z,6.60
2019-04-27T11:31:05.756Z,6.53
2019-04-27T11:33:32.958Z,5.90
2019-04-27T11:36:18.463Z,6.67
2019-04-27T11:38:46.865Z,7.90
2019-04-27T11:41:14.109Z,7.10
2019-04-27T11:43:41.302Z,7.00
2019-04-27T11:46:08.514Z,6.90
2019-04-27T11:48:36.178Z,6.37
2019-04-27T11:51:03.660Z,6.23
2019-04-27T11:53:30.853Z,6.40
2019-04-27T11:55:58.061Z,5.90
2019-04-27T11:58:26.544Z,6.10
2019-04-27T12:00:54.102Z,5.40
2019-04-27T12:03:21.305Z,6.60
2019-04-27T12:05:48.512Z,5.80
2019-04-27T12:08:16.173Z,6.77
2019-04-27T12:10:44.541Z,8.17
2019-04-27T12:13:11.778Z,8.60
2019-04-27T12:15:39.013Z,5.90
2019-04-27T12:18:08.916Z,7.53
2019-04-27T12:20:35.941Z,6.93
2019-04-27T12:23:03.490Z,6.80
2019-04-27T12:25:33.288Z,7.27
2019-04-27T12:28:20.119Z,7.87
2019-04-27T12:31:01.995Z,7.43
2019-04-27T12:33:29.204Z,5.90
2019-04-27T12:35:56.949Z,5.73
2019-04-27T12:38:24.323Z,4.90
2019-04-27T12:40:51.644Z,4.70
2019-04-27T12:43:18.865Z,4.63
2019-04-27T12:45:46.113Z,4.93
2019-04-27T12:48:14.333Z,3.90
2019-04-27T12:50:41.593Z,3.23
2019-04-27T12:53:13.729Z,3.40
2019-04-27T12:56:00.278Z,4.83
2019-04-27T12:58:47.588Z,4.80
2019-04-27T13:01:16.713Z,5.07
2019-04-27T13:03:43.914Z,4.60
2019-04-27T13:06:11.312Z,5.50
2019-04-27T13:08:38.781Z,5.07
2019-04-27T13:11:06.118Z,5.00
2019-04-27T13:13:33.441Z,6.27
2019-04-27T13:16:00.785Z,5.30
2019-04-27T13:18:28.169Z,5.00
2019-04-27T13:20:55.478Z,6.00
2019-04-27T13:23:22.676Z,7.20
2019-04-27T13:25:50.796Z,6.10
2019-04-27T13:28:18.689Z,7.00
2019-04-27T13:30:47.534Z,6.30
2019-04-27T13:33:17.188Z,6.67
2019-04-27T13:35:44.042Z,7.07
2019-04-27T13:38:11.251Z,8.13
2019-04-27T13:40:39.724Z,9.63
2019-04-27T13:43:12.594Z,7.80
2019-04-27T13:46:05.583Z,7.90
2019-04-27T13:48:51.427Z,7.30
2019-04-27T13:51:36.956Z,7.60
2019-04-27T13:54:14.974Z,7.93
2019-04-27T13:56:33.696Z,7.70
2019-04-27T13:59:03.291Z,8.00
2019-04-27T14:01:30.861Z,7.33
2019-04-27T14:03:58.097Z,8.77
2019-04-27T14:06:25.493Z,8.97
2019-04-27T14:08:53.093Z,10.47
2019-04-27T14:11:20.527Z,7.30
2019-04-27T14:13:48.450Z,7.00
2019-04-27T14:16:15.913Z,5.90
2019-04-27T14:18:43.303Z,6.37
2019-04-27T14:21:10.988Z,6.40
2019-04-27T14:23:38.674Z,7.03
2019-04-27T14:26:08.776Z,6.33
2019-04-27T14:28:36.240Z,7.10
2019-04-27T14:31:03.647Z,6.97
2019-04-27T14:33:30.841Z,5.63
2019-04-27T14:35:59.415Z,6.13
2019-04-27T14:38:26.948Z,8.17
2019-04-27T14:40:54.153Z,8.23
2019-04-27T14:43:21.392Z,7.57
2019-04-27T14:45:48.709Z,8.33
2019-04-27T14:48:15.910Z,8.00
2019-04-27T14:50:43.101Z,6.23
2019-04-27T14:53:10.309Z,8.30
2019-04-27T14:55:38.774Z,8.60
2019-04-27T14:58:06.269Z,7.43
2019-04-27T15:00:33.485Z,7.80
2019-04-27T15:03:00.781Z,8.00
2019-04-27T15:05:28.003Z,8.53
2019-04-27T15:07:55.212Z,9.27
2019-04-27T15:10:22.449Z,8.20
2019-04-27T15:12:49.731Z,10.47
2019-04-27T15:15:17.106Z,9.80
2019-04-27T15:17:44.340Z,9.27
2019-04-27T15:20:17.621Z,10.13
2019-04-27T15:22:50.339Z,11.80
2019-04-27T15:25:15.954Z,8.20
2019-04-27T15:27:50.480Z,8.20
2019-04-27T15:30:25.478Z,9.47
2019-04-27T15:33:21.124Z,10.33
2019-04-27T15:35:55.596Z,9.50
2019-04-27T15:38:25.440Z,8.43
2019-04-27T15:41:09.780Z,9.20
2019-04-27T15:43:38.733Z,9.20
2019-04-27T15:46:08.156Z,8.50
2019-04-27T15:48:35.324Z,7.67
2019-04-27T15:51:05.152Z,7.57
2019-04-27T15:53:31.797Z,8.33
2019-04-27T15:56:01.757Z,7.43
2019-04-27T15:58:28.451Z,8.27
2019-04-27T16:00:56.391Z,6.87
2019-04-27T16:03:27.211Z,7.30
2019-04-27T16:05:54.470Z,6.30
2019-04-27T16:08:21.970Z,7.13
2019-04-27T16:10:49.423Z,6.53
2019-04-27T16:13:18.161Z,6.87
2019-04-27T16:15:48.163Z,6.50
2019-04-27T16:18:16.169Z,7.00
2019-04-27T16:20:43.385Z,6.50
2019-04-27T16:23:10.673Z,6.67
2019-04-27T16:25:46.007Z,6.57
2019-04-27T16:28:09.646Z,6.80
2019-04-27T16:30:36.337Z,6.83
2019-04-27T16:33:03.945Z,6.70
2019-04-27T16:35:31.213Z,7.63
2019-04-27T16:38:18.308Z,7.10
2019-04-27T16:40:45.702Z,6.10
2019-04-27T16:43:13.195Z,7.20
2019-04-27T16:45:40.491Z,7.43
2019-04-27T16:48:09.131Z,7.00
2019-04-27T16:50:36.504Z,7.17
2019-04-27T16:53:03.813Z,6.47
2019-04-27T16:55:34.199Z,7.97
2019-04-27T16:58:00.204Z,7.00
2019-04-27T17:00:30.224Z,8.13
2019-04-27T17:02:59.882Z,7.27
2019-04-27T17:05:30.846Z,7.90
2019-04-27T17:07:55.240Z,6.97
2019-04-27T17:10:26.435Z,8.03
2019-04-27T17:12:51.601Z,7.23
2019-04-27T17:15:39.044Z,7.70
2019-04-27T17:18:34.369Z,7.93
2019-04-27T17:21:15.820Z,8.17
2019-04-27T17:23:31.636Z,8.73
2019-04-27T17:26:04.430Z,7.20
2019-04-27T17:28:42.338Z,8.70
2019-04-27T17:31:12.846Z,8.90
2019-04-27T17:33:44.537Z,8.43
2019-04-27T17:36:16.369Z,8.60
2019-04-27T17:38:42.652Z,7.70
2019-04-27T17:41:12.628Z,8.50
2019-04-27T17:43:41.547Z,7.77
2019-04-27T17:46:11.479Z,8.60
2019-04-27T17:48:38.284Z,8.87
2019-04-27T17:51:05.911Z,8.37
2019-04-27T17:53:33.281Z,8.60
2019-04-27T17:56:05.535Z,7.53
2019-04-27T17:58:29.937Z,8.60
2019-04-27T18:00:58.001Z,8.60
2019-04-27T18:03:28.416Z,11.73
2019-04-27T18:05:55.680Z,17.07
2019-04-27T18:08:25.125Z,11.17
2019-04-27T18:10:53.572Z,8.43
2019-04-27T18:13:25.483Z,8.50
2019-04-27T18:15:54.113Z,9.83
2019-04-27T18:19:00.003Z,8.70
2019-04-27T18:21:31.368Z,8.63
2019-04-27T18:24:03.085Z,8.37
2019-04-27T18:26:51.992Z,8.70
2019-04-27T18:29:18.459Z,8.70
2019-04-27T18:31:46.336Z,10.67
2019-04-27T18:34:16.982Z,11.40
2019-04-27T18:36:44.936Z,10.20
2019-04-27T18:39:13.699Z,12.70
2019-04-27T18:41:49.010Z,12.10
2019-04-27T18:44:11.182Z,12.70
2019-04-27T18:46:38.689Z,12.53
2019-04-27T18:49:22.573Z,13.40
2019-04-27T18:52:10.468Z,13.73
2019-04-27T18:54:41.866Z,12.00
2019-04-27T18:57:10.629Z,11.90
2019-04-27T18:59:37.963Z,11.40
2019-04-27T19:02:05.165Z,12.07
2019-04-27T19:04:32.385Z,10.23
2019-04-27T19:07:00.058Z,10.90
2019-04-27T19:09:27.474Z,9.87
2019-04-27T19:11:56.686Z,10.43
2019-04-27T19:14:24.154Z,10.83
2019-04-27T19:16:51.378Z,11.73
2019-04-27T19:19:18.984Z,11.20
2019-04-27T19:21:48.437Z,11.50
2019-04-27T19:24:15.833Z,12.93
2019-04-27T19:27:15.064Z,25.20
2019-04-27T19:29:44.844Z,14.30
2019-04-27T19:32:12.157Z,14.23
2019-04-27T19:34:39.510Z,14.10
2019-04-27T19:37:08.123Z,16.00
2019-04-27T19:39:36.497Z,15.93
2019-04-27T19:42:04.213Z,16.10
2019-04-27T19:44:31.746Z,16.77
2019-04-27T19:47:00.164Z,32.73
2019-04-27T19:49:29.441Z,30.50
2019-04-27T19:51:58.739Z,15.13
2019-04-27T19:54:28.289Z,13.67
2019-04-27T19:56:55.619Z,13.23
2019-04-27T19:59:28.130Z,12.90
2019-04-27T20:01:58.390Z,12.97
2019-04-27T20:04:30.585Z,13.30
2019-04-27T20:06:57.841Z,13.60
2019-04-27T20:09:43.215Z,14.00
2019-04-27T20:12:10.612Z,12.90
2019-04-27T20:15:09.496Z,12.77
2019-04-27T20:17:36.724Z,11.30
2019-04-27T20:20:05.084Z,10.90
2019-04-27T20:22:32.432Z,10.87
2019-04-27T20:25:01.485Z,10.40
2019-04-27T20:27:32.123Z,9.77
2019-04-27T20:30:00.678Z,10.10
2019-04-27T20:32:27.996Z,9.40
2019-04-27T20:34:55.236Z,9.60
2019-04-27T20:37:22.492Z,9.20
2019-04-27T20:39:51.475Z,8.70
2019-04-27T20:42:20.938Z,10.50
2019-04-27T20:44:48.119Z,13.40
2019-04-27T20:47:15.430Z,11.40
2019-04-27T20:49:42.738Z,11.33
2019-04-27T20:52:17.377Z,11.33
2019-04-27T20:54:44.638Z,11.67
2019-04-27T20:57:12.008Z,12.53
2019-04-27T20:59:39.582Z,11.03
2019-04-27T21:02:24.869Z,11.40
2019-04-27T21:05:02.638Z,11.90
2019-04-27T21:07:42.486Z,12.53
2019-04-27T21:10:09.993Z,13.30
2019-04-27T21:12:37.168Z,14.27
2019-04-27T21:15:04.852Z,12.20
2019-04-27T21:17:32.073Z,13.00
2019-04-27T21:19:59.384Z,12.03
2019-04-27T21:22:26.597Z,9.43
2019-04-27T21:24:53.964Z,9.83
2019-04-27T21:27:21.612Z,10.20
2019-04-27T21:29:48.940Z,8.30
2019-04-27T21:32:16.185Z,8.27
2019-04-27T21:34:43.368Z,8.47
2019-04-27T21:37:11.079Z,9.00
2019-04-27T21:39:38.496Z,8.83
2019-04-27T21:42:05.732Z,8.10
2019-04-27T21:44:32.936Z,8.63
2019-04-27T21:47:00.781Z,8.70
2019-04-27T21:49:28.296Z,8.97
2019-04-27T21:52:05.730Z,10.63
2019-04-27T21:54:34.276Z,11.93
2019-04-27T21:57:01.546Z,9.93
2019-04-27T21:59:28.739Z,9.77
2019-04-27T22:01:58.481Z,10.03
2019-04-27T22:04:25.689Z,9.37
2019-04-27T22:06:52.889Z,9.10
2019-04-27T22:09:20.300Z,8.90
2019-04-27T22:11:47.500Z,8.80
2019-04-27T22:14:14.696Z,9.50
2019-04-27T22:16:41.929Z,9.33
2019-04-27T22:19:09.340Z,9.47
2019-04-27T22:21:37.044Z,10.40
2019-04-27T22:24:15.821Z,10.20
2019-04-27T22:26:43.200Z,9.67
2019-04-27T22:29:12.039Z,8.40
2019-04-27T22:31:41.381Z,10.10
2019-04-27T22:34:08.730Z,9.57
2019-04-27T22:36:35.925Z,10.80
2019-04-27T22:39:18.493Z,9.50
2019-04-27T22:42:17.325Z,10.13
2019-04-27T22:44:51.043Z,8.10
2019-04-27T22:47:18.359Z,9.00
2019-04-27T22:49:45.559Z,8.07
2019-04-27T22:52:12.762Z,9.73
2019-04-27T22:54:41.971Z,9.20
2019-04-27T22:57:16.452Z,8.30
2019-04-27T23:00:03.383Z,7.97
2019-04-27T23:02:43.460Z,7.60
2019-04-27T23:05:10.913Z,7.63
2019-04-27T23:07:38.462Z,6.97
2019-04-27T23:10:06.225Z,7.50
2019-04-27T23:12:33.429Z,8.60
2019-04-27T23:15:00.757Z,8.40
2019-04-27T23:17:59.608Z,9.03
2019-04-27T23:20:26.921Z,9.40
2019-04-27T23:22:54.401Z,8.90
2019-04-27T23:25:21.596Z,9.77
2019-04-27T23:27:48.831Z,8.47
2019-04-27T23:30:17.308Z,7.50
2019-04-27T23:32:46.229Z,7.53
2019-04-27T23:35:13.504Z,7.47
2019-04-27T23:37:40.720Z,7.50
2019-04-27T23:40:08.036Z,7.50
2019-04-27T23:42:35.242Z,7.77
2019-04-27T23:45:02.885Z,8.50
2019-04-27T23:47:30.073Z,7.80
2019-04-27T23:49:57.300Z,8.60
2019-04-27T23:52:44.278Z,8.50
2019-04-27T23:55:11.582Z,10.17
2019-04-27T23:57:38.792Z,10.67
